createdAt,value
2022-12-06T00:01:47.050Z,1.48
2022-12-06T00:04:16.981Z,1.58
2022-12-06T00:06:51.959Z,1.17
2022-12-06T00:09:32.044Z,1.10
2022-12-06T00:12:00.049Z,2.22
2022-12-06T00:18:36.409Z,1.75
2022-12-06T00:36:21.067Z,1.27
2022-12-06T00:38:59.084Z,1.35
2022-12-06T00:54:17.417Z,2.42
2022-12-06T00:58:07.284Z,1.58
2022-12-06T01:15:12.694Z,1.17
2022-12-06T01:23:46.692Z,1.50
2022-12-06T01:27:42.358Z,2.67
2022-12-06T01:35:09.248Z,2.08
2022-12-06T02:14:04.653Z,1.88
2022-12-06T02:17:10.675Z,2.50
2022-12-06T02:32:12.534Z,1.95
2022-12-06T02:35:22.837Z,2.45
2022-12-06T02:38:59.639Z,2.35
2022-12-06T02:49:03.971Z,2.33
2022-12-06T02:52:38.213Z,2.78
2022-12-06T02:59:39.385Z,4.70
2022-12-06T03:03:30.432Z,3.33
2022-12-06T03:10:02.637Z,3.13
2022-12-06T03:22:12.511Z,3.83
2022-12-06T03:24:10.507Z,3.15
2022-12-06T03:27:20.312Z,4.10
2022-12-06T03:36:40.411Z,5.35
2022-12-06T03:43:31.396Z,5.72
2022-12-06T03:58:29.106Z,4.65
2022-12-06T04:01:23.091Z,4.60
2022-12-06T04:04:16.037Z,4.20
2022-12-06T04:13:51.437Z,3.95
2022-12-06T04:30:28.718Z,2.63
2022-12-06T04:34:23.019Z,2.83
2022-12-06T04:37:46.836Z,4.15
2022-12-06T04:40:25.291Z,1.55
2022-12-06T04:43:30.030Z,3.10
2022-12-06T04:46:12.303Z,2.50
2022-12-06T04:49:03.725Z,2.28
2022-12-06T04:52:52.271Z,3.15
2022-12-06T04:55:11.040Z,3.35
2022-12-06T04:57:51.417Z,2.50
2022-12-06T05:00:28.091Z,3.40
2022-12-06T05:03:13.177Z,2.30
2022-12-06T05:06:22.808Z,2.25
2022-12-06T05:09:08.911Z,2.00
2022-12-06T05:12:01.561Z,3.97
2022-12-06T05:15:02.711Z,2.20
2022-12-06T05:17:55.535Z,3.40
2022-12-06T05:20:35.057Z,2.03
2022-12-06T05:23:27.195Z,3.45
2022-12-06T05:26:13.849Z,2.85
2022-12-06T05:34:02.193Z,3.03
2022-12-06T05:35:22.398Z,1.92
2022-12-06T05:38:19.698Z,1.75
2022-12-06T05:41:02.169Z,1.67
2022-12-06T05:43:56.509Z,1.95
2022-12-06T05:46:23.954Z,3.08
2022-12-06T05:49:39.802Z,2.67
2022-12-06T05:52:52.778Z,1.45
2022-12-06T05:55:37.818Z,2.58
2022-12-06T05:58:21.327Z,2.60
2022-12-06T06:01:31.336Z,2.15
2022-12-06T06:03:58.683Z,1.95
2022-12-06T06:06:33.044Z,3.10
2022-12-06T06:09:03.228Z,2.17
2022-12-06T06:11:33.512Z,1.58
2022-12-06T06:14:00.853Z,1.55
2022-12-06T06:16:43.015Z,2.97
2022-12-06T06:19:30.413Z,1.42
2022-12-06T06:22:26.272Z,1.55
2022-12-06T06:24:59.203Z,2.05
2022-12-06T06:27:33.135Z,2.90
2022-12-06T06:30:03.951Z,3.97
2022-12-06T06:32:41.746Z,3.30
2022-12-06T06:35:13.683Z,2.72
2022-12-06T06:38:11.381Z,1.85
2022-12-06T06:40:46.738Z,3.30
2022-12-06T06:43:20.541Z,4.20
2022-12-06T06:46:16.998Z,3.83
2022-12-06T06:49:03.618Z,2.38
2022-12-06T06:51:36.848Z,3.25
2022-12-06T06:56:51.015Z,2.33
2022-12-06T06:59:21.465Z,4.18
2022-12-06T07:02:21.947Z,3.75
2022-12-06T07:06:19.873Z,4.03
2022-12-06T07:08:39.643Z,3.55
2022-12-06T07:11:28.632Z,2.75
2022-12-06T07:14:04.928Z,4.15
2022-12-06T07:16:57.455Z,2.53
2022-12-06T07:24:01.246Z,4.18
2022-12-06T07:30:56.147Z,3.08
2022-12-06T07:33:32.372Z,3.28
2022-12-06T07:48:18.339Z,3.03
2022-12-06T07:51:29.506Z,4.00
2022-12-06T07:54:19.546Z,3.45
2022-12-06T08:05:29.708Z,2.33
2022-12-06T08:17:46.897Z,2.78
2022-12-06T08:21:46.775Z,2.22
2022-12-06T08:55:22.642Z,2.72
2022-12-06T08:57:57.320Z,1.92
2022-12-06T09:00:38.823Z,3.40
2022-12-06T09:16:24.428Z,1.67
2022-12-06T09:24:26.780Z,2.03
2022-12-06T09:39:47.765Z,2.22
2022-12-06T10:16:06.485Z,2.47
2022-12-06T10:23:49.723Z,1.83
2022-12-06T11:18:02.787Z,1.30
2022-12-06T12:32:11.740Z,1.80
2022-12-06T12:49:40.432Z,2.42
2022-12-06T12:53:00.403Z,2.88
2022-12-06T12:59:01.376Z,3.78
2022-12-06T13:01:42.299Z,2.88
2022-12-06T13:04:29.997Z,1.70
2022-12-06T13:07:03.467Z,1.77
2022-12-06T13:10:00.337Z,2.75
2022-12-06T13:13:09.021Z,3.03
2022-12-06T13:16:08.839Z,2.28
2022-12-06T13:18:50.506Z,2.50
2022-12-06T13:21:31.807Z,1.75
2022-12-06T13:24:23.947Z,3.15
2022-12-06T13:30:33.552Z,1.98
2022-12-06T13:33:19.239Z,4.25
2022-12-06T13:36:10.696Z,2.50
2022-12-06T13:39:30.142Z,3.10
2022-12-06T13:42:59.546Z,2.63
2022-12-06T13:46:12.819Z,2.70
2022-12-06T13:49:00.688Z,5.40
2022-12-06T13:51:39.211Z,3.45
2022-12-06T13:54:10.725Z,3.70
2022-12-06T13:56:43.684Z,2.63
2022-12-06T13:59:19.952Z,3.85
2022-12-06T14:02:20.573Z,2.42
2022-12-06T14:05:00.753Z,3.17
2022-12-06T14:07:36.751Z,2.75
2022-12-06T14:10:14.259Z,2.03
2022-12-06T14:12:45.930Z,4.53
2022-12-06T14:15:59.661Z,2.03
2022-12-06T14:18:40.966Z,2.67
2022-12-06T14:26:21.908Z,3.83
2022-12-06T14:29:15.136Z,2.70
2022-12-06T14:32:10.882Z,3.50
2022-12-06T14:42:53.933Z,1.58
2022-12-06T14:45:54.274Z,2.47
2022-12-06T14:48:23.123Z,2.15
2022-12-06T14:51:32.640Z,2.90
2022-12-06T14:54:32.004Z,4.00
2022-12-06T14:57:33.822Z,2.10
2022-12-06T15:00:27.030Z,3.00
2022-12-06T15:03:26.044Z,2.25
2022-12-06T15:07:12.662Z,1.70
2022-12-06T15:14:49.990Z,2.67
2022-12-06T15:17:25.732Z,2.60
2022-12-06T15:20:14.445Z,2.47
2022-12-06T15:25:59.530Z,3.30
2022-12-06T15:29:32.577Z,4.70
2022-12-06T15:32:04.246Z,3.30
2022-12-06T15:39:18.909Z,4.55
2022-12-06T16:05:49.547Z,3.60
2022-12-06T16:12:23.305Z,4.40
2022-12-06T16:15:32.278Z,7.05
2022-12-06T16:17:59.581Z,5.10
2022-12-06T16:20:35.649Z,3.03
2022-12-06T16:23:49.490Z,4.05
2022-12-06T16:29:02.230Z,4.03
2022-12-06T16:31:38.752Z,4.97
2022-12-06T16:34:06.351Z,4.15
2022-12-06T16:36:34.168Z,4.47
2022-12-06T16:39:10.019Z,3.50
2022-12-06T16:41:37.284Z,3.05
2022-12-06T16:44:11.180Z,3.35
2022-12-06T16:46:40.777Z,4.35
2022-12-06T16:49:45.802Z,5.20
2022-12-06T16:52:14.426Z,4.40
2022-12-06T16:54:42.166Z,4.05
2022-12-06T16:57:17.109Z,3.67
2022-12-06T16:59:44.219Z,5.95
2022-12-06T17:02:27.943Z,4.38
2022-12-06T17:04:56.405Z,4.90
2022-12-06T17:07:29.500Z,8.88
2022-12-06T17:09:56.670Z,6.65
2022-12-06T17:12:23.925Z,9.15
2022-12-06T17:14:54.936Z,6.10
2022-12-06T17:17:57.312Z,9.48
2022-12-06T17:20:41.711Z,6.43
2022-12-06T17:23:08.984Z,7.65
2022-12-06T17:25:50.015Z,7.53
2022-12-06T17:28:53.790Z,5.75
2022-12-06T17:31:21.246Z,6.25
2022-12-06T17:38:18.169Z,8.07
2022-12-06T17:40:47.808Z,9.27
2022-12-06T17:43:17.262Z,8.00
2022-12-06T17:45:45.728Z,8.45
2022-12-06T17:48:14.733Z,7.93
2022-12-06T17:50:41.831Z,7.45
2022-12-06T17:53:14.343Z,6.68
2022-12-06T17:55:43.916Z,7.20
2022-12-06T17:58:11.089Z,7.25
2022-12-06T18:05:08.413Z,8.35
2022-12-06T18:07:54.176Z,8.70
2022-12-06T18:10:34.835Z,8.68
2022-12-06T18:13:11.391Z,7.80
2022-12-06T18:16:51.767Z,7.22
2022-12-06T18:23:21.156Z,8.65
2022-12-06T18:25:51.024Z,9.77
2022-12-06T18:28:21.118Z,7.88
2022-12-06T18:35:13.501Z,8.32
2022-12-06T18:37:41.298Z,9.18
2022-12-06T18:40:08.597Z,10.88
2022-12-06T18:42:42.346Z,9.13
2022-12-06T18:45:15.693Z,12.02
2022-12-06T19:04:53.836Z,9.63
2022-12-06T19:07:32.286Z,10.15
2022-12-06T19:09:59.631Z,11.07
2022-12-06T19:12:29.088Z,11.07
2022-12-06T19:15:07.102Z,13.00
2022-12-06T19:17:34.193Z,8.98
2022-12-06T19:20:01.802Z,9.40
2022-12-06T19:22:41.072Z,9.15
2022-12-06T19:25:09.160Z,8.15
2022-12-06T19:27:36.502Z,7.28
2022-12-06T19:30:07.777Z,8.23
2022-12-06T19:32:37.868Z,8.27
2022-12-06T19:35:08.554Z,8.65
2022-12-06T19:37:39.036Z,10.45
2022-12-06T19:40:06.854Z,8.95
2022-12-06T19:42:53.790Z,10.85
2022-12-06T19:45:20.952Z,9.45
2022-12-06T19:47:50.645Z,10.10
2022-12-06T19:50:20.050Z,11.77
2022-12-06T19:52:47.430Z,9.50
2022-12-06T19:55:19.580Z,9.50
2022-12-06T19:57:48.679Z,12.30
2022-12-06T20:00:21.103Z,12.93
2022-12-06T20:02:49.798Z,12.75
2022-12-06T20:05:22.658Z,12.85
2022-12-06T20:12:39.438Z,10.77
2022-12-06T20:15:34.396Z,10.38
2022-12-06T20:18:15.751Z,11.27
2022-12-06T20:20:51.519Z,15.65
2022-12-06T20:23:23.946Z,10.05
2022-12-06T20:25:56.069Z,13.73
2022-12-06T20:33:39.400Z,11.82
2022-12-06T20:36:43.426Z,8.85
2022-12-06T20:39:30.605Z,8.85
2022-12-06T20:41:59.538Z,10.75
2022-12-06T20:47:29.842Z,10.65
2022-12-06T20:50:07.571Z,8.90
2022-12-06T20:52:42.596Z,10.52
2022-12-06T20:55:42.022Z,10.45
2022-12-06T20:58:28.435Z,9.02
2022-12-06T21:01:03.092Z,10.30
2022-12-06T21:03:38.683Z,8.40
2022-12-06T21:06:13.012Z,9.65
2022-12-06T21:08:40.763Z,9.57
2022-12-06T21:11:22.686Z,10.57
2022-12-06T21:15:32.711Z,9.20
2022-12-06T21:18:59.220Z,9.90
2022-12-06T21:21:55.431Z,11.77
2022-12-06T21:24:22.763Z,12.35
2022-12-06T21:31:43.249Z,13.05
2022-12-06T21:34:19.167Z,12.90
2022-12-06T21:37:29.593Z,11.65
2022-12-06T21:40:09.640Z,11.73
2022-12-06T21:42:53.375Z,10.85
2022-12-06T21:49:02.124Z,12.18
2022-12-06T21:56:46.024Z,10.07
2022-12-06T22:03:26.672Z,9.43
2022-12-06T22:06:35.515Z,8.75
2022-12-06T22:09:51.785Z,7.90
2022-12-06T22:12:18.886Z,7.63
2022-12-06T22:15:39.301Z,9.30
2022-12-06T22:18:06.654Z,8.65
2022-12-06T22:21:09.863Z,7.55
2022-12-06T22:23:37.212Z,9.30
2022-12-06T22:26:18.453Z,7.43
2022-12-06T22:28:48.783Z,7.63
2022-12-06T22:31:30.929Z,8.18
2022-12-06T22:39:02.940Z,7.20
2022-12-06T22:41:31.392Z,7.38
2022-12-06T22:44:03.521Z,8.07
2022-12-06T22:46:31.553Z,7.72
2022-12-06T22:49:00.420Z,7.93
2022-12-06T22:51:38.319Z,8.27
2022-12-06T22:54:12.843Z,9.38
2022-12-06T22:56:49.445Z,9.73
2022-12-06T22:59:17.382Z,10.15
2022-12-06T23:01:45.671Z,9.98
2022-12-06T23:04:16.075Z,9.73
2022-12-06T23:06:44.569Z,9.75
2022-12-06T23:09:15.752Z,10.35
2022-12-06T23:11:46.071Z,7.18
2022-12-06T23:14:16.139Z,9.23
2022-12-06T23:16:55.035Z,9.82
2022-12-06T23:19:23.319Z,7.45
2022-12-06T23:21:50.821Z,8.55
2022-12-06T23:24:17.950Z,8.32
2022-12-06T23:26:51.976Z,12.82
2022-12-06T23:29:25.480Z,8.45
2022-12-06T23:31:55.599Z,8.15
2022-12-06T23:34:32.914Z,7.57
2022-12-06T23:37:04.955Z,9.95
2022-12-06T23:39:37.198Z,9.45
2022-12-06T23:42:04.569Z,6.65
2022-12-06T23:44:42.154Z,6.80
2022-12-06T23:47:10.675Z,7.18
2022-12-06T23:49:37.827Z,8.30
2022-12-06T23:52:07.110Z,6.57
2022-12-06T23:54:40.300Z,6.57
2022-12-06T23:57:07.362Z,8.02
2022-12-06T23:59:34.359Z,5.50
